Fort Myers, FL

6:34 PM EDT on August 22, 2014 (GMT -0400)
Fleamasters Fleamarket | Change Station
CLOSE
Current Station
Personal Weather Station
Location: Fort Myers, FL
Elevation: 23 ft
Nearby Weather Stations

Elev 23 ft 26.64 °N, 81.83 °W | Updated 55 seconds ago

Mostly Cloudy
Mostly Cloudy
93.2 °F
Feels Like 106 °F
N
6.0
Wind Variable Wind from NW
Gusts 10.0 mph

Today
High -- | Low -- °F
--% Chance of Precip.
Yesterday
High -- | Low -- °F
Precip. -- in
7:02 AM 7:57 PM
Waning Crescent, 6% visible
Pressure 29.97 in
Visibility 10.0 miles
Clouds Mostly Cloudy 4600 ft
Mostly Cloudy 6500 ft
Mostly Cloudy 8000 ft
Heat Index 106 °F
Dew Point 76 °F
Humidity 57%
Rainfall 0.00 in
Snow Depth Not available.
UV 0.6 out of 12
Pollen 4.60 out of 12
Air Quality Not available.
Flu Activity Not available.
METAR KFMY 222153Z 27004KT 10SM BKN046 BKN065 BKN080 34/24 A2996 RMK AO2 LTG DSNT N AND SE AND S SLP148 T03390239

More Conditions Fewer Conditions

Pressure 29.97 in
Visibility 10.0 miles
Clouds Mostly Cloudy 4600 ft
Mostly Cloudy 6500 ft
Mostly Cloudy 8000 ft
Heat Index 106 °F
Dew Point 76 °F
Humidity 57%
Rainfall 0.00 in
Snow Depth Not available.
UV 0.6 out of 12
Pollen 4.60 out of 12
Air Quality Not available.
Flu Activity Not available.
METAR KFMY 222153Z 27004KT 10SM BKN046 BKN065 BKN080 34/24 A2996 RMK AO2 LTG DSNT N AND SE AND S SLP148 T03390239

More Conditions Fewer Conditions

10-Day Weather Forecast

Almanac

Astronomy

Aug. 22, 2014 Rise Set
Actual Time 7:02 AM EDT 7:57 PM EDT
Civil Twilight 6:38 AM EDT 8:21 PM EDT
Nautical Twilight 6:10 AM EDT 8:49 PM EDT
Astronomical Twilight 5:41 AM EDT 9:18 PM EDT
Moon 4:31 AM EDT 5:59 PM EDT
Length of Visible Light 13h 42m
Length of Day
12h 54m
Tomorrow will be 1m 27s shorter.
Waning Crescent, 6% of the Moon is Illuminated
Today
Waning Crescent
Aug 25
New
Sep 2
First Quarter
Sep 8
Full
Sep 15
Last Quarter

Today's Extremes

State Highs State Lows

Community

WunderPhotos

Upload Photos

1,746,274 photos uploaded!

WunderBlogs® & News

By Dr. Jeff Masters
Director of Meteorology, Weather Underground
By Kari Strenfel
Meteorologist, Weather Underground
By Christopher C. Burt
Weather Historian, Weather Underground
August 22, 2014
August 22, 2014
August 22, 2014

Nearby

Snow Depth

Station Depth Elevation
No new snow has been reported.

Earthquake Activity

City Distance Mag. Time & Date
No recent earthquake activity has been reported nearby.
Minimum magnitude displayed is 2.5.

Coastal Water Temperatures

Place Temperature
Fort Myers, FL 95.0 °F

Nearby Weather Stations